Time;durP1;ratioP1;P1;durP2;ratioP2;P2;SDS_P1;SDS_P2;PMS_P1;PMS_P2;Temp;Humidity;BMP_temperature;BMP_pressure;BME280_temperature;BME280_humidity;BME280_pressure;Samples;Min_cycle;Max_cycle;Signal;HPM_P1;HPM_P2
2023/11/04 00:01:05;;;;;;;;;;;15.40;80.00;;;;;;4042994;29;20283;-45
2023/11/04 00:03:53;;;;;;;;;;;15.40;79.40;;;;;;4043256;29;19938;-44
2023/11/04 00:06:34;;;;;;;;;;;15.40;80.70;;;;;;4042546;29;20026;-50
2023/11/04 00:09:14;;;;;;;;;;;15.40;80.20;;;;;;4042355;29;19955;-51
2023/11/04 00:12:01;;;;;;;;;;;15.40;79.90;;;;;;4040766;29;19998;-50
2023/11/04 00:14:42;;;;;;;;;;;15.40;79.30;;;;;;4042129;29;20350;-42
2023/11/04 00:17:23;;;;;;;;;;;15.40;79.70;;;;;;4043198;29;20282;-43
2023/11/04 00:20:06;;;;;;;;;;;15.40;80.00;;;;;;4042052;29;19934;-43
2023/11/04 00:22:47;;;;;;;;;;;15.40;78.90;;;;;;4042699;29;19945;-43
2023/11/04 00:25:28;;;;;;;;;;;15.30;78.60;;;;;;4042794;29;19958;-43
2023/11/04 00:28:09;;;;;;;;;;;15.30;79.30;;;;;;4042220;29;19934;-45
2023/11/04 00:30:53;;;;;;;;;;;15.40;79.20;;;;;;4042729;29;20402;-44
2023/11/04 00:33:54;;;;;;;;;;;15.40;79.10;;;;;;4041254;29;20451;-44
2023/11/04 00:36:56;;;;;;;;;;;15.40;79.30;;;;;;4025185;29;19939;-44
2023/11/04 00:39:57;;;;;;;;;;;15.50;79.20;;;;;;4035480;29;19938;-44
2023/11/04 00:42:58;;;;;;;;;;;15.50;79.60;;;;;;4044463;29;19951;-44
2023/11/04 00:45:58;;;;;;;;;;;15.60;79.80;;;;;;4027573;29;19939;-45
2023/11/04 00:48:59;;;;;;;;;;;15.60;79.60;;;;;;4035266;29;19974;-44
2023/11/04 00:52:01;;;;;;;;;;;15.70;78.90;;;;;;4035303;29;20066;-45
2023/11/04 00:55:03;;;;;;;;;;;15.60;78.80;;;;;;4036276;29;19939;-44
2023/11/04 00:58:04;;;;;;;;;;;15.70;78.70;;;;;;4035525;29;19934;-44
2023/11/04 01:01:06;;;;;;;;;;;15.70;78.60;;;;;;4035508;29;19944;-45
2023/11/04 01:04:07;;;;;;;;;;;15.80;78.80;;;;;;4035587;29;19934;-51
2023/11/04 01:07:09;;;;;;;;;;;15.80;78.80;;;;;;4035198;29;19938;-50
2023/11/04 01:10:13;;;;;;;;;;;15.80;77.80;;;;;;4044209;29;20385;-51
2023/11/04 01:13:13;;;;;;;;;;;15.80;77.80;;;;;;4033786;29;19938;-50
2023/11/04 01:16:14;;;;;;;;;;;15.80;77.20;;;;;;4035265;29;19935;-50
2023/11/04 01:19:15;;;;;;;;;;;15.80;77.20;;;;;;4027263;29;19982;-50
2023/11/04 01:22:17;;;;;;;;;;;15.80;77.50;;;;;;4027469;29;20034;-45
2023/11/04 01:25:17;;;;;;;;;;;15.70;77.40;;;;;;4035220;29;19951;-44
2023/11/04 01:28:18;;;;;;;;;;;15.80;77.40;;;;;;4037034;29;20065;-44
2023/11/04 01:31:20;;;;;;;;;;;15.80;77.60;;;;;;4050794;29;19934;-44
2023/11/04 01:34:21;;;;;;;;;;;15.80;77.80;;;;;;4035517;29;19934;-44
2023/11/04 01:37:25;;;;;;;;;;;15.80;77.50;;;;;;4041959;29;19938;-44
2023/11/04 01:40:26;;;;;;;;;;;15.80;77.80;;;;;;4041997;29;19938;-44
2023/11/04 01:43:27;;;;;;;;;;;15.80;77.60;;;;;;4049949;29;20077;-44
2023/11/04 01:46:28;;;;;;;;;;;15.80;78.20;;;;;;4050675;29;19946;-44
2023/11/04 01:49:29;;;;;;;;;;;15.80;77.90;;;;;;4050107;29;19938;-44
2023/11/04 01:52:32;;;;;;;;;;;15.80;78.00;;;;;;4026461;29;19934;-44
2023/11/04 01:55:33;;;;;;;;;;;15.90;78.30;;;;;;4034587;29;20019;-44
2023/11/04 01:58:35;;;;;;;;;;;15.90;78.60;;;;;;4026590;29;19935;-44
2023/11/04 02:01:35;;;;;;;;;;;15.90;77.70;;;;;;4038725;29;19934;-44
2023/11/04 02:04:36;;;;;;;;;;;15.80;77.30;;;;;;4050138;29;20401;-44
2023/11/04 02:07:38;;;;;;;;;;;15.80;77.40;;;;;;4041544;29;19938;-45
2023/11/04 02:10:38;;;;;;;;;;;15.80;77.50;;;;;;4042286;29;19954;-44
2023/11/04 02:13:39;;;;;;;;;;;15.80;77.40;;;;;;4049763;29;19934;-44
2023/11/04 02:16:40;;;;;;;;;;;15.90;77.70;;;;;;4040342;29;19985;-44
2023/11/04 02:19:41;;;;;;;;;;;15.90;78.10;;;;;;4025882;29;19934;-44
2023/11/04 02:22:43;;;;;;;;;;;15.90;77.40;;;;;;4044834;29;19939;-44
2023/11/04 02:25:43;;;;;;;;;;;15.80;77.20;;;;;;4035696;29;20310;-44
2023/11/04 02:28:44;;;;;;;;;;;15.80;77.20;;;;;;4058319;29;19934;-44
2023/11/04 02:31:45;;;;;;;;;;;15.80;77.10;;;;;;4049639;29;19938;-44
2023/11/04 02:34:46;;;;;;;;;;;15.80;77.70;;;;;;4056967;29;19938;-43
2023/11/04 02:37:50;;;;;;;;;;;15.80;76.60;;;;;;4042758;29;20438;-43
2023/11/04 02:40:50;;;;;;;;;;;15.80;77.50;;;;;;4034371;29;19938;-44
2023/11/04 02:43:51;;;;;;;;;;;15.80;77.20;;;;;;4033981;29;19974;-44
2023/11/04 02:46:52;;;;;;;;;;;15.90;77.00;;;;;;4036225;29;19991;-44
2023/11/04 02:49:52;;;;;;;;;;;15.90;77.10;;;;;;4035749;29;19982;-44
2023/11/04 02:52:55;;;;;;;;;;;15.90;76.80;;;;;;4033718;29;19955;-44
2023/11/04 02:55:55;;;;;;;;;;;15.90;77.80;;;;;;4033607;29;19955;-44
2023/11/04 02:58:56;;;;;;;;;;;15.90;77.20;;;;;;4028290;29;19934;-44
2023/11/04 03:01:57;;;;;;;;;;;15.90;77.30;;;;;;4041251;29;19938;-44
2023/11/04 03:04:58;;;;;;;;;;;15.80;77.50;;;;;;4032933;29;19938;-44
2023/11/04 03:08:00;;;;;;;;;;;15.80;77.70;;;;;;4027757;29;20440;-44
2023/11/04 03:11:00;;;;;;;;;;;15.80;77.30;;;;;;4033421;29;19937;-44
2023/11/04 03:14:01;;;;;;;;;;;15.80;77.80;;;;;;4025339;29;20295;-44
2023/11/04 03:17:02;;;;;;;;;;;15.80;78.60;;;;;;4046013;29;19934;-44
2023/11/04 03:20:05;;;;;;;;;;;15.80;78.50;;;;;;4043296;29;20186;-43
2023/11/04 03:23:07;;;;;;;;;;;15.80;77.50;;;;;;4025065;29;19934;-44
2023/11/04 03:26:08;;;;;;;;;;;15.80;77.50;;;;;;4033074;29;20080;-44
2023/11/04 03:29:10;;;;;;;;;;;15.80;77.40;;;;;;4040008;29;19986;-44
2023/11/04 03:32:11;;;;;;;;;;;15.80;77.50;;;;;;4049362;29;19950;-44
2023/11/04 03:35:12;;;;;;;;;;;15.80;78.40;;;;;;4039091;29;19985;-43
2023/11/04 03:38:15;;;;;;;;;;;15.80;78.00;;;;;;4025041;29;20091;-43
2023/11/04 03:41:16;;;;;;;;;;;15.90;77.70;;;;;;4041197;29;20394;-42
2023/11/04 03:44:17;;;;;;;;;;;15.90;77.30;;;;;;4032596;29;19986;-43
2023/11/04 03:47:18;;;;;;;;;;;15.90;78.00;;;;;;4033150;29;20067;-43
2023/11/04 03:50:18;;;;;;;;;;;15.90;77.50;;;;;;4034395;29;20016;-43
2023/11/04 03:53:20;;;;;;;;;;;15.90;77.70;;;;;;4032810;29;19938;-44
2023/11/04 03:56:21;;;;;;;;;;;15.90;78.20;;;;;;4032883;29;20029;-44
2023/11/04 03:59:22;;;;;;;;;;;15.90;78.30;;;;;;4033067;29;19995;-44
2023/11/04 04:02:23;;;;;;;;;;;15.90;77.80;;;;;;4033104;29;19982;-43
2023/11/04 04:05:24;;;;;;;;;;;15.90;77.90;;;;;;4041966;29;20006;-43
2023/11/04 04:08:26;;;;;;;;;;;15.90;78.40;;;;;;4033062;29;20006;-44
2023/11/04 04:11:27;;;;;;;;;;;15.90;78.10;;;;;;4032574;29;20560;-44
2023/11/04 04:14:27;;;;;;;;;;;15.80;78.20;;;;;;4032594;29;19955;-43
2023/11/04 04:17:28;;;;;;;;;;;15.80;78.00;;;;;;4041408;29;20029;-44
2023/11/04 04:20:29;;;;;;;;;;;15.80;77.90;;;;;;4032756;29;19939;-44
2023/11/04 04:23:31;;;;;;;;;;;15.80;78.10;;;;;;4041869;29;19938;-44
2023/11/04 04:26:32;;;;;;;;;;;15.80;79.70;;;;;;4046329;29;19946;-43
2023/11/04 04:29:33;;;;;;;;;;;15.70;79.00;;;;;;4032438;29;19934;-44
2023/11/04 04:32:34;;;;;;;;;;;15.80;78.60;;;;;;4043669;29;19986;-44
2023/11/04 04:35:35;;;;;;;;;;;15.80;78.20;;;;;;4032188;29;19934;-44
2023/11/04 04:38:38;;;;;;;;;;;15.80;78.60;;;;;;4032261;29;19971;-44
2023/11/04 04:41:39;;;;;;;;;;;15.80;78.80;;;;;;4032019;29;20067;-44
2023/11/04 04:44:40;;;;;;;;;;;15.80;79.00;;;;;;4032980;29;20291;-43
2023/11/04 04:47:40;;;;;;;;;;;15.80;79.20;;;;;;4032196;29;19935;-44
2023/11/04 04:50:41;;;;;;;;;;;15.90;79.20;;;;;;4046462;29;19974;-44
2023/11/04 04:53:44;;;;;;;;;;;15.90;79.00;;;;;;4045914;29;19938;-43
2023/11/04 04:56:44;;;;;;;;;;;15.90;78.80;;;;;;4047759;29;20074;-43
2023/11/04 04:59:45;;;;;;;;;;;16.00;78.90;;;;;;4039964;29;19982;-43
2023/11/04 05:02:46;;;;;;;;;;;16.00;78.50;;;;;;4032485;29;19970;-43
2023/11/04 05:05:46;;;;;;;;;;;16.00;78.50;;;;;;4032567;29;19950;-43
2023/11/04 05:08:49;;;;;;;;;;;16.00;78.40;;;;;;4033324;29;20002;-44
2023/11/04 05:11:52;;;;;;;;;;;16.00;79.30;;;;;;4045873;29;19938;-44
2023/11/04 05:14:53;;;;;;;;;;;16.00;78.50;;;;;;4047624;29;19954;-43
2023/11/04 05:17:53;;;;;;;;;;;15.90;78.40;;;;;;4047289;29;19934;-43
2023/11/04 05:20:54;;;;;;;;;;;15.80;78.70;;;;;;4032549;29;19935;-43
2023/11/04 05:23:56;;;;;;;;;;;15.90;79.20;;;;;;4033515;29;20449;-43
2023/11/04 05:26:56;;;;;;;;;;;15.90;80.20;;;;;;4044535;29;19938;-44
2023/11/04 05:29:58;;;;;;;;;;;15.80;79.00;;;;;;4039216;29;20030;-43
2023/11/04 05:33:00;;;;;;;;;;;15.80;79.20;;;;;;4034649;29;19935;-43
2023/11/04 05:36:01;;;;;;;;;;;15.90;79.50;;;;;;4035325;29;19934;-43
2023/11/04 05:39:03;;;;;;;;;;;15.90;79.40;;;;;;4035090;29;20035;-43
2023/11/04 05:42:05;;;;;;;;;;;16.00;79.20;;;;;;4034447;29;19943;-44
2023/11/04 05:45:07;;;;;;;;;;;16.10;79.60;;;;;;4034393;29;20823;-44
2023/11/04 05:48:08;;;;;;;;;;;16.10;80.20;;;;;;4034747;29;20394;-42
2023/11/04 05:51:09;;;;;;;;;;;16.20;80.90;;;;;;4026635;29;19940;-43
2023/11/04 05:54:12;;;;;;;;;;;16.20;79.00;;;;;;4035001;29;19974;-43
2023/11/04 05:57:13;;;;;;;;;;;16.20;78.80;;;;;;4034711;29;19938;-43
2023/11/04 06:00:15;;;;;;;;;;;16.10;79.40;;;;;;4034129;29;19938;-43
2023/11/04 06:03:16;;;;;;;;;;;16.10;79.60;;;;;;4034505;29;20406;-43
2023/11/04 06:06:18;;;;;;;;;;;16.10;80.10;;;;;;4042465;29;19978;-42
2023/11/04 06:09:20;;;;;;;;;;;16.20;79.50;;;;;;4049837;29;20598;-43
2023/11/04 06:12:21;;;;;;;;;;;16.20;79.00;;;;;;4049795;29;20516;-43
2023/11/04 06:15:21;;;;;;;;;;;16.20;80.10;;;;;;4045483;29;20049;-42
2023/11/04 06:18:22;;;;;;;;;;;16.20;79.60;;;;;;4034329;29;19938;-42
2023/11/04 06:21:23;;;;;;;;;;;16.20;79.70;;;;;;4034008;29;19935;-42
2023/11/04 06:24:26;;;;;;;;;;;16.20;79.60;;;;;;4033713;29;19938;-42
2023/11/04 06:27:26;;;;;;;;;;;16.20;79.60;;;;;;4033860;29;19939;-42
2023/11/04 06:30:27;;;;;;;;;;;16.10;79.10;;;;;;4033912;29;19934;-42
2023/11/04 06:33:28;;;;;;;;;;;16.10;79.40;;;;;;4043598;29;19978;-42
2023/11/04 06:36:31;;;;;;;;;;;16.00;79.70;;;;;;4033453;29;19938;-43
2023/11/04 06:39:34;;;;;;;;;;;16.00;80.20;;;;;;4034085;29;20002;-43
2023/11/04 06:42:34;;;;;;;;;;;16.00;80.80;;;;;;4033743;29;19995;-43
2023/11/04 06:45:35;;;;;;;;;;;16.00;80.40;;;;;;4034129;29;19982;-43
2023/11/04 06:48:36;;;;;;;;;;;16.00;80.30;;;;;;4037375;29;19935;-43
2023/11/04 06:51:36;;;;;;;;;;;16.00;80.20;;;;;;4033894;29;20497;-43
2023/11/04 06:54:17;;;;;;;;;;;16.00;80.50;;;;;;4041850;29;19934;-43
2023/11/04 06:57:00;;;;;;;;;;;16.00;80.00;;;;;;4059271;29;19985;-43
2023/11/04 06:59:41;;;;;;;;;;;16.10;80.20;;;;;;4047526;29;20145;-43
2023/11/04 07:02:22;;;;;;;;;;;16.10;79.70;;;;;;4049412;29;19935;-43
2023/11/04 07:05:03;;;;;;;;;;;16.10;79.70;;;;;;4059386;29;19937;-43
2023/11/04 07:07:44;;;;;;;;;;;16.20;79.90;;;;;;4056288;29;20039;-43
2023/11/04 07:10:26;;;;;;;;;;;16.20;79.60;;;;;;4059063;29;19938;-43
2023/11/04 07:13:11;;;;;;;;;;;16.30;79.40;;;;;;4050732;29;19934;-43
2023/11/04 07:15:52;;;;;;;;;;;16.20;79.70;;;;;;4043707;29;20067;-42
2023/11/04 07:18:34;;;;;;;;;;;16.20;80.60;;;;;;4042849;29;19938;-50
2023/11/04 07:21:14;;;;;;;;;;;16.20;80.00;;;;;;4043241;29;19934;-49
2023/11/04 07:23:55;;;;;;;;;;;16.30;80.20;;;;;;4042622;29;19938;-49
2023/11/04 07:26:36;;;;;;;;;;;16.30;80.90;;;;;;4043790;29;19934;-51
2023/11/04 07:29:18;;;;;;;;;;;16.30;79.70;;;;;;4043507;29;20411;-50
2023/11/04 07:31:59;;;;;;;;;;;16.30;79.90;;;;;;4042965;29;19934;-49
2023/11/04 07:34:40;;;;;;;;;;;16.30;79.60;;;;;;4043545;29;19938;-49
2023/11/04 07:37:21;;;;;;;;;;;16.30;79.80;;;;;;4031478;29;19954;-50
2023/11/04 07:40:03;;;;;;;;;;;16.30;79.60;;;;;;4042792;29;19938;-50
2023/11/04 07:42:45;;;;;;;;;;;16.30;79.40;;;;;;4053749;29;19935;-51
2023/11/04 07:45:27;;;;;;;;;;;16.30;79.60;;;;;;4035604;29;19938;-49
2023/11/04 07:48:09;;;;;;;;;;;16.20;79.50;;;;;;4035919;29;20003;-50
2023/11/04 07:50:50;;;;;;;;;;;16.20;79.90;;;;;;4042841;29;20067;-53
2023/11/04 07:53:30;;;;;;;;;;;16.10;80.00;;;;;;4042561;29;19954;-51
2023/11/04 07:56:11;;;;;;;;;;;16.10;80.00;;;;;;4051250;29;19934;-51
2023/11/04 07:58:52;;;;;;;;;;;16.00;80.10;;;;;;4049702;29;19942;-50
2023/11/04 08:01:34;;;;;;;;;;;16.00;80.60;;;;;;4042543;29;19939;-50
2023/11/04 08:04:14;;;;;;;;;;;16.00;80.80;;;;;;4043111;29;20049;-53
2023/11/04 08:06:56;;;;;;;;;;;16.00;80.80;;;;;;4043621;29;19973;-50
2023/11/04 08:09:36;;;;;;;;;;;16.10;81.50;;;;;;4031165;29;19938;-51
2023/11/04 08:12:17;;;;;;;;;;;16.20;80.30;;;;;;4042676;29;19983;-52
2023/11/04 08:14:58;;;;;;;;;;;16.20;80.20;;;;;;4045144;29;19938;-51
2023/11/04 08:17:40;;;;;;;;;;;16.30;79.60;;;;;;4047181;29;20023;-49
2023/11/04 08:20:21;;;;;;;;;;;16.30;79.60;;;;;;4048063;29;19938;-49
2023/11/04 08:23:01;;;;;;;;;;;16.30;79.70;;;;;;4048601;29;20271;-50
2023/11/04 08:25:42;;;;;;;;;;;16.30;79.50;;;;;;4036326;29;20437;-50
2023/11/04 08:28:23;;;;;;;;;;;16.30;79.60;;;;;;4057033;29;20022;-50
2023/11/04 08:31:04;;;;;;;;;;;16.40;79.50;;;;;;4052954;29;20067;-49
2023/11/04 08:33:48;;;;;;;;;;;16.40;79.00;;;;;;4041739;29;20442;-51
2023/11/04 08:36:29;;;;;;;;;;;16.40;80.10;;;;;;4048181;29;19934;-53
2023/11/04 08:39:10;;;;;;;;;;;16.40;79.20;;;;;;4047914;29;19978;-53
2023/11/04 08:41:51;;;;;;;;;;;16.40;79.50;;;;;;4044930;29;19934;-50
2023/11/04 08:44:32;;;;;;;;;;;16.40;79.10;;;;;;4049820;29;20410;-50
2023/11/04 08:47:12;;;;;;;;;;;16.40;79.20;;;;;;4046749;29;19933;-50
2023/11/04 08:49:54;;;;;;;;;;;16.40;79.40;;;;;;4030857;29;20287;-43
2023/11/04 08:52:35;;;;;;;;;;;16.40;79.40;;;;;;4042660;29;20000;-43
2023/11/04 08:55:16;;;;;;;;;;;16.40;79.20;;;;;;4042656;29;20088;-43
2023/11/04 08:57:56;;;;;;;;;;;16.30;79.00;;;;;;4042464;29;19934;-50
2023/11/04 09:00:38;;;;;;;;;;;16.30;79.10;;;;;;4054946;29;19986;-50
2023/11/04 09:03:19;;;;;;;;;;;16.30;80.00;;;;;;4048693;29;20063;-50
2023/11/04 09:06:01;;;;;;;;;;;16.30;80.20;;;;;;4049331;29;19934;-51
2023/11/04 09:08:42;;;;;;;;;;;16.30;81.00;;;;;;4052991;29;19938;-50
2023/11/04 09:11:23;;;;;;;;;;;16.30;79.80;;;;;;4049319;29;19942;-50
2023/11/04 09:14:04;;;;;;;;;;;16.30;79.50;;;;;;4059765;29;19934;-53
2023/11/04 09:16:46;;;;;;;;;;;16.30;79.20;;;;;;4055881;29;20319;-51
2023/11/04 09:19:27;;;;;;;;;;;16.30;79.00;;;;;;4045256;29;19938;-53
2023/11/04 09:22:09;;;;;;;;;;;16.30;78.70;;;;;;4043046;29;20054;-52
2023/11/04 09:24:52;;;;;;;;;;;16.30;78.70;;;;;;4058985;29;20074;-53
2023/11/04 09:27:33;;;;;;;;;;;16.20;78.60;;;;;;4049121;29;20551;-49
2023/11/04 09:30:14;;;;;;;;;;;16.20;78.60;;;;;;4061003;29;20390;-49
2023/11/04 09:32:55;;;;;;;;;;;16.10;79.30;;;;;;4060511;29;19994;-50
2023/11/04 09:35:36;;;;;;;;;;;16.10;78.40;;;;;;4056534;29;19937;-42
2023/11/04 09:38:18;;;;;;;;;;;16.00;78.40;;;;;;4044892;29;20018;-42
2023/11/04 09:40:59;;;;;;;;;;;16.00;78.50;;;;;;4054120;29;19934;-42
2023/11/04 09:43:40;;;;;;;;;;;15.90;78.60;;;;;;4060646;29;20025;-42
2023/11/04 09:46:22;;;;;;;;;;;15.90;78.70;;;;;;4053556;29;20145;-43
2023/11/04 09:49:03;;;;;;;;;;;15.80;78.90;;;;;;4039744;29;20709;-50
2023/11/04 09:51:44;;;;;;;;;;;15.80;79.00;;;;;;4049244;29;20033;-52
2023/11/04 09:54:27;;;;;;;;;;;15.80;79.00;;;;;;4049741;29;19939;-42
2023/11/04 09:57:08;;;;;;;;;;;15.80;79.00;;;;;;4044439;29;19935;-42
2023/11/04 09:59:49;;;;;;;;;;;15.80;78.90;;;;;;4044534;29;19955;-43
2023/11/04 10:02:30;;;;;;;;;;;15.80;78.80;;;;;;4044467;29;20374;-42
2023/11/04 10:05:11;;;;;;;;;;;15.80;78.60;;;;;;4058147;29;20061;-42
2023/11/04 10:07:51;;;;;;;;;;;15.80;78.50;;;;;;4052291;29;19934;-43
2023/11/04 10:10:34;;;;;;;;;;;15.80;78.50;;;;;;4059274;29;19942;-43
2023/11/04 10:13:16;;;;;;;;;;;15.80;78.60;;;;;;4059300;29;20363;-43
2023/11/04 10:15:57;;;;;;;;;;;15.80;78.50;;;;;;4059446;29;19950;-50
2023/11/04 10:18:37;;;;;;;;;;;15.90;78.40;;;;;;4058223;29;19934;-51
2023/11/04 10:21:18;;;;;;;;;;;16.00;78.00;;;;;;4032890;29;19950;-53
2023/11/04 10:23:59;;;;;;;;;;;16.10;77.40;;;;;;4043704;29;19955;-53
2023/11/04 10:26:43;;;;;;;;;;;16.20;76.70;;;;;;4049799;29;19938;-51
2023/11/04 10:29:23;;;;;;;;;;;16.30;76.10;;;;;;4059754;29;20298;-42
2023/11/04 10:32:06;;;;;;;;;;;16.40;75.50;;;;;;4059204;29;19934;-43
2023/11/04 10:34:47;;;;;;;;;;;16.50;75.00;;;;;;4058211;29;20418;-43
2023/11/04 10:37:29;;;;;;;;;;;16.60;75.40;;;;;;4059478;29;20722;-43
2023/11/04 10:40:11;;;;;;;;;;;16.70;74.20;;;;;;4059645;29;19938;-42
2023/11/04 10:42:57;;;;;;;;;;;16.80;73.60;;;;;;4059459;29;19938;-43
2023/11/04 10:45:41;;;;;;;;;;;16.90;73.10;;;;;;4045692;29;19938;-42
2023/11/04 10:48:28;;;;;;;;;;;16.80;72.90;;;;;;4058903;29;19949;-43
2023/11/04 10:51:13;;;;;;;;;;;16.80;72.80;;;;;;4059292;29;19934;-50
2023/11/04 10:54:00;;;;;;;;;;;16.90;72.80;;;;;;4058894;29;20070;-50
2023/11/04 10:56:43;;;;;;;;;;;16.90;72.80;;;;;;4043581;29;20555;-51
2023/11/04 10:59:27;;;;;;;;;;;16.90;72.70;;;;;;4054627;29;19979;-52
2023/11/04 11:02:09;;;;;;;;;;;16.80;72.80;;;;;;4029616;29;20291;-50
2023/11/04 11:04:50;;;;;;;;;;;16.80;73.00;;;;;;4043788;29;20049;-49
2023/11/04 11:07:32;;;;;;;;;;;16.80;73.20;;;;;;4049359;29;20049;-50
2023/11/04 11:10:13;;;;;;;;;;;16.80;73.10;;;;;;4044589;29;20298;-51
2023/11/04 11:13:00;;;;;;;;;;;16.90;73.80;;;;;;4052420;29;20018;-49
2023/11/04 11:15:42;;;;;;;;;;;16.90;72.40;;;;;;4042226;29;20002;-51
2023/11/04 11:18:27;;;;;;;;;;;17.00;72.10;;;;;;4041355;29;19937;-49
2023/11/04 11:21:08;;;;;;;;;;;17.00;72.00;;;;;;4042341;29;19978;-50
2023/11/04 11:23:50;;;;;;;;;;;17.00;71.70;;;;;;4046803;29;19935;-51
2023/11/04 11:26:31;;;;;;;;;;;17.10;71.80;;;;;;4042537;29;19982;-50
2023/11/04 11:29:18;;;;;;;;;;;17.00;71.70;;;;;;4051617;29;20074;-42
2023/11/04 11:32:09;;;;;;;;;;;17.00;72.00;;;;;;4047483;29;19955;-42
2023/11/04 11:34:50;;;;;;;;;;;17.10;72.40;;;;;;4056280;29;20084;-42
2023/11/04 11:37:31;;;;;;;;;;;17.10;72.30;;;;;;4040815;29;20013;-42
2023/11/04 11:40:13;;;;;;;;;;;17.20;72.10;;;;;;4034076;29;19943;-42
2023/11/04 11:42:54;;;;;;;;;;;17.20;71.80;;;;;;4041473;29;20057;-42
2023/11/04 11:45:35;;;;;;;;;;;17.20;71.80;;;;;;4043663;29;19934;-42
2023/11/04 11:48:18;;;;;;;;;;;17.20;71.80;;;;;;4035725;29;20075;-42
2023/11/04 11:50:59;;;;;;;;;;;17.20;71.80;;;;;;4047775;29;20508;-43
2023/11/04 11:53:41;;;;;;;;;;;17.20;71.80;;;;;;4049981;29;20537;-42
2023/11/04 11:56:23;;;;;;;;;;;17.20;71.60;;;;;;4050253;29;19982;-42
2023/11/04 11:59:05;;;;;;;;;;;17.20;71.60;;;;;;4040829;29;19934;-42
2023/11/04 12:01:46;;;;;;;;;;;17.20;71.50;;;;;;4047824;29;19938;-42
2023/11/04 12:04:28;;;;;;;;;;;17.10;71.60;;;;;;4042625;29;19942;-50
2023/11/04 12:07:09;;;;;;;;;;;17.00;71.70;;;;;;4043109;29;19990;-53
2023/11/04 12:09:50;;;;;;;;;;;17.00;71.80;;;;;;4042312;29;19938;-49
2023/11/04 12:12:31;;;;;;;;;;;16.90;72.10;;;;;;4044603;29;19990;-50
2023/11/04 12:15:13;;;;;;;;;;;16.90;72.40;;;;;;4055030;29;19954;-43
2023/11/04 12:17:58;;;;;;;;;;;16.90;72.40;;;;;;4047292;29;20263;-51
2023/11/04 12:20:42;;;;;;;;;;;16.90;72.30;;;;;;4042406;29;20063;-51
2023/11/04 12:23:27;;;;;;;;;;;16.90;72.00;;;;;;4040506;29;19982;-51
2023/11/04 12:26:08;;;;;;;;;;;17.00;72.00;;;;;;4044487;29;19935;-50
2023/11/04 12:28:49;;;;;;;;;;;17.00;72.00;;;;;;4045890;29;19991;-50
2023/11/04 12:31:30;;;;;;;;;;;17.00;71.90;;;;;;4052076;29;20397;-52
2023/11/04 12:34:12;;;;;;;;;;;17.00;71.90;;;;;;4005395;29;20114;-43
2023/11/04 12:36:55;;;;;;;;;;;17.00;72.00;;;;;;4044368;29;19979;-42
2023/11/04 12:39:52;;;;;;;;;;;17.00;71.90;;;;;;4040517;29;19938;-43
2023/11/04 12:42:35;;;;;;;;;;;17.10;72.00;;;;;;4044732;29;19978;-53
2023/11/04 12:45:16;;;;;;;;;;;17.10;71.80;;;;;;4058172;29;20045;-51
2023/11/04 12:47:57;;;;;;;;;;;17.10;72.00;;;;;;4058285;29;20410;-50
2023/11/04 12:50:38;;;;;;;;;;;17.00;72.00;;;;;;4054150;29;19986;-42
2023/11/04 12:53:22;;;;;;;;;;;17.00;72.00;;;;;;4052674;29;19938;-43
2023/11/04 12:56:03;;;;;;;;;;;17.00;72.00;;;;;;4043468;29;19990;-52
2023/11/04 12:58:44;;;;;;;;;;;17.00;72.00;;;;;;4057996;29;20406;-53
2023/11/04 13:01:25;;;;;;;;;;;17.00;71.80;;;;;;4043626;29;19981;-50
2023/11/04 13:04:06;;;;;;;;;;;17.00;72.10;;;;;;4050128;29;19938;-43
2023/11/04 13:06:46;;;;;;;;;;;17.00;72.30;;;;;;4021301;29;20302;-43
2023/11/04 13:09:30;;;;;;;;;;;17.00;72.30;;;;;;4050614;29;20294;-43
2023/11/04 13:12:12;;;;;;;;;;;17.00;72.60;;;;;;4043193;29;19974;-42
2023/11/04 13:14:53;;;;;;;;;;;17.10;72.80;;;;;;4057479;29;19942;-42
2023/11/04 13:17:34;;;;;;;;;;;17.00;72.80;;;;;;4054621;29;19939;-51
2023/11/04 13:20:17;;;;;;;;;;;17.00;72.70;;;;;;4057948;29;19958;-52
2023/11/04 13:22:57;;;;;;;;;;;17.00;73.00;;;;;;4043235;29;19953;-51
2023/11/04 13:25:39;;;;;;;;;;;17.00;73.30;;;;;;4043141;29;19951;-54
2023/11/04 13:28:21;;;;;;;;;;;17.00;75.90;;;;;;4042791;29;19970;-52
2023/11/04 13:31:02;;;;;;;;;;;17.10;75.50;;;;;;4041204;29;20856;-51
2023/11/04 13:33:43;;;;;;;;;;;17.10;75.30;;;;;;4042131;29;19986;-52
2023/11/04 13:36:24;;;;;;;;;;;17.10;75.10;;;;;;4045900;29;19938;-44
2023/11/04 13:39:06;;;;;;;;;;;17.10;75.00;;;;;;4051902;29;19937;-43
2023/11/04 13:41:53;;;;;;;;;;;17.20;75.00;;;;;;4034701;29;19941;-44
2023/11/04 13:44:33;;;;;;;;;;;17.10;74.80;;;;;;4051687;29;19934;-44
2023/11/04 13:47:16;;;;;;;;;;;17.10;74.90;;;;;;4057802;29;20395;-44
2023/11/04 13:49:58;;;;;;;;;;;17.00;75.20;;;;;;4035537;29;19970;-44
2023/11/04 13:52:39;;;;;;;;;;;17.00;75.40;;;;;;4031935;29;20072;-44
2023/11/04 13:55:20;;;;;;;;;;;16.90;75.40;;;;;;4045577;29;19938;-43
2023/11/04 13:58:03;;;;;;;;;;;16.80;76.60;;;;;;4044203;29;19969;-44
2023/11/04 14:00:45;;;;;;;;;;;16.80;76.10;;;;;;4035788;29;19942;-43
2023/11/04 14:03:26;;;;;;;;;;;16.70;76.30;;;;;;4057643;29;20437;-44
2023/11/04 14:06:07;;;;;;;;;;;16.70;76.60;;;;;;4046678;29;19953;-52
2023/11/04 14:08:48;;;;;;;;;;;16.60;76.80;;;;;;4049913;29;19951;-51
2023/11/04 14:11:29;;;;;;;;;;;16.50;77.00;;;;;;4020536;29;19938;-50
2023/11/04 14:14:12;;;;;;;;;;;16.60;78.30;;;;;;4045493;29;20423;-54
2023/11/04 14:16:53;;;;;;;;;;;16.60;77.60;;;;;;4034935;29;20445;-53
2023/11/04 14:19:37;;;;;;;;;;;16.70;77.40;;;;;;4049003;29;20052;-51
2023/11/04 14:22:18;;;;;;;;;;;16.70;77.40;;;;;;4042758;29;19946;-51
2023/11/04 14:24:58;;;;;;;;;;;16.70;77.50;;;;;;4044510;29;19942;-51
2023/11/04 14:27:39;;;;;;;;;;;16.70;77.70;;;;;;4047087;29;19938;-53
2023/11/04 14:30:22;;;;;;;;;;;16.70;77.80;;;;;;4046705;29;19934;-51
2023/11/04 14:33:03;;;;;;;;;;;16.60;77.80;;;;;;4051466;29;19999;-54
2023/11/04 14:35:44;;;;;;;;;;;16.60;78.00;;;;;;4047459;29;19986;-50
2023/11/04 14:38:25;;;;;;;;;;;16.60;78.40;;;;;;4042279;29;19939;-53
2023/11/04 14:41:05;;;;;;;;;;;16.50;78.80;;;;;;4039791;29;20350;-53
2023/11/04 14:43:46;;;;;;;;;;;16.50;79.30;;;;;;4030229;29;19938;-43
2023/11/04 14:46:29;;;;;;;;;;;16.50;79.70;;;;;;4043124;29;19997;-43
2023/11/04 14:49:09;;;;;;;;;;;16.60;79.50;;;;;;4041789;29;19973;-44
2023/11/04 14:51:50;;;;;;;;;;;16.60;79.80;;;;;;4044641;29;20044;-50
2023/11/04 14:54:31;;;;;;;;;;;16.50;79.90;;;;;;4045390;29;20079;-50
2023/11/04 14:57:12;;;;;;;;;;;16.50;79.90;;;;;;4041217;29;19938;-54
2023/11/04 14:59:53;;;;;;;;;;;16.50;80.00;;;;;;4056307;29;19972;-50
2023/11/04 15:02:35;;;;;;;;;;;16.50;80.30;;;;;;4042763;29;19970;-51
2023/11/04 15:05:16;;;;;;;;;;;16.40;80.60;;;;;;4042275;29;19939;-53
2023/11/04 15:07:57;;;;;;;;;;;16.40;80.80;;;;;;4041868;29;20294;-49
2023/11/04 15:10:38;;;;;;;;;;;16.30;80.80;;;;;;4056016;29;19985;-53
2023/11/04 15:13:18;;;;;;;;;;;16.30;80.90;;;;;;4041447;29;19938;-51
2023/11/04 15:15:59;;;;;;;;;;;16.20;81.00;;;;;;4043841;29;19934;-51
2023/11/04 15:18:41;;;;;;;;;;;16.20;81.20;;;;;;4044475;29;19939;-43
2023/11/04 15:21:23;;;;;;;;;;;16.10;81.60;;;;;;4057540;29;20058;-43
2023/11/04 15:24:03;;;;;;;;;;;16.10;82.20;;;;;;4054832;29;20086;-43
2023/11/04 15:26:44;;;;;;;;;;;16.10;82.80;;;;;;4058783;29;19990;-43
2023/11/04 15:29:25;;;;;;;;;;;16.20;82.80;;;;;;4058873;29;19938;-43
2023/11/04 15:32:06;;;;;;;;;;;16.20;82.60;;;;;;4058433;29;20578;-43
2023/11/04 15:34:48;;;;;;;;;;;16.20;82.50;;;;;;4058284;29;19934;-43
2023/11/04 15:37:29;;;;;;;;;;;16.20;83.40;;;;;;4043108;29;19970;-43
2023/11/04 15:40:10;;;;;;;;;;;16.30;82.50;;;;;;4043047;29;19951;-42
2023/11/04 15:42:51;;;;;;;;;;;16.30;82.60;;;;;;4042890;29;19934;-49
2023/11/04 15:45:34;;;;;;;;;;;16.30;83.70;;;;;;4041890;29;24172;-52
2023/11/04 15:48:15;;;;;;;;;;;16.30;82.80;;;;;;4042399;29;19935;-49
2023/11/04 15:50:57;;;;;;;;;;;16.40;82.50;;;;;;4042517;29;19934;-49
2023/11/04 15:53:38;;;;;;;;;;;16.50;83.10;;;;;;4055052;29;19934;-49
2023/11/04 15:56:19;;;;;;;;;;;16.50;82.00;;;;;;4046110;29;20302;-48
2023/11/04 15:58:59;;;;;;;;;;;16.50;82.00;;;;;;4045799;29;20302;-52
2023/11/04 16:01:40;;;;;;;;;;;16.50;81.80;;;;;;4046332;29;20077;-50
2023/11/04 16:04:21;;;;;;;;;;;16.50;82.00;;;;;;4046431;29;19990;-49
2023/11/04 16:07:04;;;;;;;;;;;16.40;82.00;;;;;;4045931;29;20291;-43
2023/11/04 16:09:45;;;;;;;;;;;16.50;82.00;;;;;;4056646;29;19937;-43
2023/11/04 16:12:26;;;;;;;;;;;16.40;82.40;;;;;;4057819;29;19934;-43
2023/11/04 16:15:07;;;;;;;;;;;16.50;82.80;;;;;;4058368;29;20369;-43
2023/11/04 16:17:48;;;;;;;;;;;16.70;82.40;;;;;;4058568;29;19982;-43
2023/11/04 16:20:29;;;;;;;;;;;17.00;81.40;;;;;;4058207;29;19938;-43